| time (UTC) | temp F | wind direction | speed MPH | gust MPH | rain 1hr in | rain 24hr in | rain mn in | humidity % | barometer mb |
| 20260831064536 | 47 | 180 | 2.0 | 3.0 | 0.00 | 0.00 | 0.00 | 91 | 1018.1 |
| 20260831060037 | 48 | 171 | 2.0 | 4.0 | 0.00 | 0.00 | 0.00 | 89 | 1018.4 |
| 20260831054535 | 49 | 162 | 2.0 | 4.0 | 0.00 | 0.00 | 0.00 | 89 | 1018.6 |
| 20260831053036 | 50 | 89 | 0.0 | 1.0 | 0.00 | 0.00 | 0.00 | 88 | 1018.7 |
| 20260831051535 | 50 | 180 | 1.0 | 3.0 | 0.00 | 0.00 | 0.00 | 88 | 1018.8 |
| 20260831050035 | 51 | 172 | 3.0 | 5.0 | 0.00 | 0.00 | 0.00 | 88 | 1018.9 |
| 20260831044530 | 50 | 169 | 4.0 | 6.0 | 0.00 | 0.00 | 0.00 | 87 | 1018.9 |
| 20260831041541 | 51 | 158 | 3.0 | 4.0 | 0.00 | 0.00 | 0.00 | 85 | 1019.0 |
| 20260831040035 | 52 | 180 | 4.0 | 6.0 | 0.00 | 0.00 | 0.00 | 83 | 1018.9 |
| 20260831034608 | 53 | 177 | 3.0 | 4.0 | 0.00 | 0.00 | 0.00 | 80 | 1018.8 |
| 20260831033035 | 55 | 169 | 2.0 | 5.0 | 0.00 | 0.00 | 0.00 | 77 | 1018.7 |
| 20260831031532 | 56 | 235 | 2.0 | 5.0 | 0.00 | 0.00 | 0.00 | 73 | 1018.7 |
| 20260831030034 | 59 | 5 | 2.0 | 4.0 | 0.00 | 0.00 | 0.00 | 67 | 1018.7 |
| 20260831024536 | 61 | 13 | 3.0 | 5.0 | 0.00 | 0.00 | 0.00 | 59 | 1018.7 |
| 20260831023031 | 63 | 360 | 4.0 | 6.0 | 0.00 | 0.00 | 0.00 | 55 | 1018.7 |
| 20260831021536 | 64 | 355 | 4.0 | 7.0 | 0.00 | 0.00 | 0.00 | 52 | 1018.8 |
| 20260831020037 | 66 | 353 | 4.0 | 8.0 | 0.00 | 0.00 | 0.00 | 49 | 1018.7 |
| 20260831014534 | 67 | 4 | 6.0 | 11.0 | 0.00 | 0.00 | 0.00 | 47 | 1018.7 |
| 20260831013034 | 68 | 353 | 7.0 | 14.0 | 0.00 | 0.00 | 0.00 | 45 | 1018.7 |
| 20260831011535 | 69 | 341 | 6.0 | 12.0 | 0.00 | 0.00 | 0.00 | 44 | 1018.8 |
| 20260831010035 | 70 | 343 | 7.0 | 12.0 | 0.00 | 0.00 | 0.00 | 43 | 1018.8 |
| 20260831004536 | 70 | 336 | 7.0 | 14.0 | 0.00 | 0.00 | 0.00 | 42 | 1018.8 |
| 20260831003035 | 71 | 334 | 7.0 | 15.0 | 0.00 | 0.00 | 0.00 | 41 | 1018.7 |
| 20260831001534 | 71 | 341 | 8.0 | 16.0 | 0.00 | 0.00 | 0.00 | 40 | 1018.8 |
| 20260831000106 | 72 | 331 | 7.0 | 15.0 | 0.00 | 0.00 | 0.00 | 40 | 1018.7 |
| 20260830234536 | 72 | 334 | 6.0 | 12.0 | 0.00 | 0.00 | 0.00 | 40 | 1018.7 |
| 20260830233035 | 73 | 337 | 6.0 | 12.0 | 0.00 | 0.00 | 0.00 | 41 | 1018.8 |
| 20260830231643 | 73 | 328 | 6.0 | 14.0 | 0.00 | 0.00 | 0.00 | 41 | 1018.8 |
| 20260830230034 | 73 | 331 | 5.0 | 13.0 | 0.00 | 0.00 | 0.00 | 41 | 1019.0 |
| 20260830224536 | 73 | 318 | 5.0 | 12.0 | 0.00 | 0.00 | 0.00 | 41 | 1019.1 |
| 20260830223035 | 73 | 319 | 6.0 | 13.0 | 0.00 | 0.00 | 0.00 | 42 | 1019.3 |
| 20260830221535 | 72 | 324 | 6.0 | 12.0 | 0.00 | 0.00 | 0.00 | 42 | 1019.6 |
| 20260830214605 | 71 | 338 | 9.0 | 17.0 | 0.00 | 0.00 | 0.00 | 43 | 1019.9 |
| 20260830213105 | 71 | 339 | 7.0 | 14.0 | 0.00 | 0.00 | 0.00 | 44 | 1020.1 |
| 20260830210144 | 70 | 323 | 5.0 | 12.0 | 0.00 | 0.00 | 0.00 | 46 | 1020.1 |
| 20260830204537 | 68 | 2 | 6.0 | 13.0 | 0.00 | 0.00 | 0.00 | 50 | 1020.3 |
| 20260830201536 | 69 | 38 | 6.0 | 11.0 | 0.00 | 0.00 | 0.00 | 50 | 1020.7 |
| 20260830200036 | 69 | 45 | 5.0 | 9.0 | 0.00 | 0.00 | 0.00 | 49 | 1020.8 |
| 20260830194609 | 69 | 56 | 4.0 | 9.0 | 0.00 | 0.00 | 0.00 | 49 | 1021.0 |
| 20260830193033 | 69 | 79 | 3.0 | 8.0 | 0.00 | 0.00 | 0.00 | 48 | 1021.2 |
| 20260830191533 | 70 | 67 | 4.0 | 9.0 | 0.00 | 0.00 | 0.00 | 46 | 1021.2 |
| 20260830190034 | 69 | 54 | 2.0 | 7.0 | 0.00 | 0.00 | 0.00 | 47 | 1021.4 |
| 20260830184535 | 69 | 92 | 1.0 | 6.0 | 0.00 | 0.00 | 0.00 | 49 | 1021.6 |
| 20260830181652 | 67 | 77 | 2.0 | 5.0 | 0.00 | 0.00 | 0.00 | 51 | 1021.8 |
| 20260830180109 | 66 | 39 | 4.0 | 8.0 | 0.00 | 0.00 | 0.00 | 52 | 1021.8 |
| 20260830174534 | 66 | 26 | 4.0 | 7.0 | 0.00 | 0.00 | 0.00 | 52 | 1021.8 |
| 20260830173030 | 64 | 8 | 4.0 | 7.0 | 0.00 | 0.00 | 0.00 | 53 | 1021.9 |
| 20260830171643 | 63 | 87 | 2.0 | 6.0 | 0.00 | 0.00 | 0.00 | 55 | 1021.9 |
| 20260830170034 | 62 | 124 | 2.0 | 5.0 | 0.00 | 0.00 | 0.00 | 59 | 1022.1 |
| 20260830164534 | 61 | 127 | 2.0 | 6.0 | 0.00 | 0.00 | 0.00 | 62 | 1022.3 |
| 20260830163033 | 61 | 128 | 3.0 | 6.0 | 0.00 | 0.00 | 0.00 | 62 | 1022.4 |
| 20260830161534 | 61 | 114 | 1.0 | 5.0 | 0.00 | 0.00 | 0.00 | 64 | 1022.5 |
| 20260830154530 | 57 | 175 | 0.0 | 2.0 | 0.00 | 0.00 | 0.00 | 82 | 1022.8 |
| 20260830153030 | 54 | 154 | 1.0 | 3.0 | 0.00 | 0.00 | 0.00 | 88 | 1022.8 |
| 20260830151642 | 51 | 135 | 0.0 | 3.0 | 0.00 | 0.00 | 0.00 | 95 | 1022.7 |
| 20260830150033 | 47 | 141 | 0.0 | 2.0 | 0.00 | 0.00 | 0.00 | 96 | 1022.7 |
| 20260830144532 | 43 | 176 | 1.0 | 4.0 | 0.00 | 0.00 | 0.00 | 96 | 1022.6 |
| 20260830143036 | 41 | 159 | 2.0 | 4.0 | 0.00 | 0.00 | 0.00 | 96 | 1022.5 |
| 20260830141531 | 40 | 157 | 1.0 | 3.0 | 0.00 | 0.00 | 0.00 | 96 | 1022.2 |
| 20260830140037 | 40 | 214 | 0.0 | 4.0 | 0.00 | 0.00 | 0.00 | 96 | 1021.9 |
| 20260830134535 | 40 | 222 | 0.0 | 3.0 | 0.00 | 0.00 | 0.00 | 95 | 1021.9 |
| 20260830133039 | 40 | 170 | 2.0 | 5.0 | 0.00 | 0.00 | 0.00 | 95 | 1021.8 |
| 20260830130032 | 40 | 166 | 4.0 | 6.0 | 0.00 | 0.00 | 0.00 | 95 | 1021.6 |
| 20260830124535 | 40 | 206 | 1.0 | 4.0 | 0.00 | 0.00 | 0.00 | 95 | 1021.6 |
| 20260830123033 | 40 | 160 | 3.0 | 5.0 | 0.00 | 0.00 | 0.00 | 94 | 1021.7 |
| 20260830121536 | 40 | 161 | 3.0 | 4.0 | 0.00 | 0.00 | 0.00 | 93 | 1021.7 |
| 20260830120035 | 40 | 180 | 2.0 | 4.0 | 0.00 | 0.00 | 0.00 | 93 | 1021.8 |
| 20260830114535 | 41 | 173 | 3.0 | 5.0 | 0.00 | 0.00 | 0.00 | 93 | 1021.8 |
| 20260830113036 | 42 | 176 | 2.0 | 5.0 | 0.00 | 0.00 | 0.00 | 92 | 1021.8 |
| 20260830111606 | 43 | 203 | 2.0 | 4.0 | 0.00 | 0.00 | 0.00 | 92 | 1021.9 |
| 20260830104536 | 45 | 173 | 2.0 | 4.0 | 0.00 | 0.00 | 0.00 | 92 | 1022.0 |
| 20260830103151 | 46 | 209 | 2.0 | 5.0 | 0.00 | 0.00 | 0.00 | 93 | 1022.0 |
| 20260830101535 | 46 | 236 | 3.0 | 8.0 | 0.00 | 0.00 | 0.00 | 94 | 1021.9 |
| 20260830100106 | 44 | 231 | 4.0 | 8.0 | 0.00 | 0.00 | 0.00 | 94 | 1021.9 |
| 20260830094535 | 42 | 216 | 3.0 | 7.0 | 0.00 | 0.00 | 0.00 | 94 | 1021.8 |
| 20260830093035 | 42 | 181 | 2.0 | 6.0 | 0.00 | 0.00 | 0.00 | 93 | 1021.9 |
| 20260830091531 | 43 | 156 | 2.0 | 5.0 | 0.00 | 0.00 | 0.00 | 93 | 1022.0 |
| 20260830090051 | 43 | 259 | 0.0 | 3.0 | 0.00 | 0.00 | 0.00 | 93 | 1021.9 |
| 20260830083141 | 44 | 219 | 0.0 | 3.0 | 0.00 | 0.00 | 0.00 | 92 | 1022.0 |
| 20260830081530 | 44 | 190 | 3.0 | 8.0 | 0.00 | 0.00 | 0.00 | 91 | 1022.1 |
| 20260830080036 | 44 | 181 | 2.0 | 6.0 | 0.00 | 0.00 | 0.00 | 90 | 1022.1 |
| 20260830074535 | 44 | 166 | 1.0 | 5.0 | 0.00 | 0.00 | 0.00 | 89 | 1022.0 |
| 20260830073036 | 46 | 240 | 0.0 | 4.0 | 0.00 | 0.00 | 0.00 | 88 | 1022.0 |
| 20260830071535 | 46 | 273 | 2.0 | 4.0 | 0.00 | 0.00 | 0.00 | 87 | 1022.0 |
| 20260830070030 | 47 | 99 | 2.0 | 6.0 | 0.00 | 0.00 | 0.00 | 85 | 1022.0 |